sensor_id;sensor_type;location;lat;lon;timestamp;temperature;humidity
11736;DHT22;5924;51.398;7.088;2022-12-24T00:01:22;10.00;99.90
11736;DHT22;5924;51.398;7.088;2022-12-24T00:03:48;10.00;99.90
11736;DHT22;5924;51.398;7.088;2022-12-24T00:06:19;10.00;99.90
11736;DHT22;5924;51.398;7.088;2022-12-24T00:08:45;10.00;99.90
11736;DHT22;5924;51.398;7.088;2022-12-24T00:11:11;10.00;99.90
11736;DHT22;5924;51.398;7.088;2022-12-24T00:13:37;10.00;99.90
11736;DHT22;5924;51.398;7.088;2022-12-24T00:16:03;10.00;99.90
11736;DHT22;5924;51.398;7.088;2022-12-24T00:18:29;10.00;99.90
11736;DHT22;5924;51.398;7.088;2022-12-24T00:20:54;9.90;99.90
11736;DHT22;5924;51.398;7.088;2022-12-24T00:23:20;9.90;99.90
11736;DHT22;5924;51.398;7.088;2022-12-24T00:25:46;9.90;99.90
11736;DHT22;5924;51.398;7.088;2022-12-24T00:28:13;9.90;99.90
11736;DHT22;5924;51.398;7.088;2022-12-24T00:30:40;10.00;99.90
11736;DHT22;5924;51.398;7.088;2022-12-24T00:33:06;9.90;99.90
11736;DHT22;5924;51.398;7.088;2022-12-24T00:35:35;9.90;99.90
11736;DHT22;5924;51.398;7.088;2022-12-24T00:38:01;9.80;99.90
11736;DHT22;5924;51.398;7.088;2022-12-24T00:40:28;9.80;99.90
11736;DHT22;5924;51.398;7.088;2022-12-24T00:42:55;9.80;99.90
11736;DHT22;5924;51.398;7.088;2022-12-24T00:45:20;9.80;99.90
11736;DHT22;5924;51.398;7.088;2022-12-24T00:47:46;9.80;99.90
11736;DHT22;5924;51.398;7.088;2022-12-24T00:50:11;9.80;99.90
11736;DHT22;5924;51.398;7.088;2022-12-24T00:52:37;9.80;99.90
11736;DHT22;5924;51.398;7.088;2022-12-24T00:55:03;9.80;99.90
11736;DHT22;5924;51.398;7.088;2022-12-24T00:57:29;9.70;99.90
11736;DHT22;5924;51.398;7.088;2022-12-24T00:59:54;9.60;99.90
11736;DHT22;5924;51.398;7.088;2022-12-24T01:02:20;9.60;99.90
11736;DHT22;5924;51.398;7.088;2022-12-24T01:04:46;9.60;99.90
11736;DHT22;5924;51.398;7.088;2022-12-24T01:07:30;9.60;99.90
11736;DHT22;5924;51.398;7.088;2022-12-24T01:09:55;9.60;99.90
11736;DHT22;5924;51.398;7.088;2022-12-24T01:12:21;9.60;99.90
11736;DHT22;5924;51.398;7.088;2022-12-24T01:14:47;9.60;99.90
11736;DHT22;5924;51.398;7.088;2022-12-24T01:17:13;9.50;99.90
11736;DHT22;5924;51.398;7.088;2022-12-24T01:19:38;9.40;99.90
11736;DHT22;5924;51.398;7.088;2022-12-24T01:22:04;9.40;99.90
11736;DHT22;5924;51.398;7.088;2022-12-24T01:24:30;9.30;99.90
11736;DHT22;5924;51.398;7.088;2022-12-24T01:26:55;9.30;99.90
11736;DHT22;5924;51.398;7.088;2022-12-24T01:29:21;9.30;99.90
11736;DHT22;5924;51.398;7.088;2022-12-24T01:31:46;9.30;99.90
11736;DHT22;5924;51.398;7.088;2022-12-24T01:34:12;9.40;99.90
11736;DHT22;5924;51.398;7.088;2022-12-24T01:36:38;9.40;99.90
11736;DHT22;5924;51.398;7.088;2022-12-24T01:39:03;9.40;99.90
11736;DHT22;5924;51.398;7.088;2022-12-24T01:41:30;9.50;99.90
11736;DHT22;5924;51.398;7.088;2022-12-24T01:44:20;9.40;99.90
11736;DHT22;5924;51.398;7.088;2022-12-24T01:46:49;9.40;99.90
11736;DHT22;5924;51.398;7.088;2022-12-24T01:49:16;9.40;99.90
11736;DHT22;5924;51.398;7.088;2022-12-24T01:51:48;9.40;99.90
11736;DHT22;5924;51.398;7.088;2022-12-24T01:56:44;9.30;99.90
11736;DHT22;5924;51.398;7.088;2022-12-24T01:59:12;9.30;99.90
11736;DHT22;5924;51.398;7.088;2022-12-24T02:01:38;9.30;99.90
11736;DHT22;5924;51.398;7.088;2022-12-24T02:04:15;9.20;99.90
11736;DHT22;5924;51.398;7.088;2022-12-24T02:06:41;9.20;99.90
11736;DHT22;5924;51.398;7.088;2022-12-24T02:09:07;9.30;99.90
11736;DHT22;5924;51.398;7.088;2022-12-24T02:11:33;9.20;99.90
11736;DHT22;5924;51.398;7.088;2022-12-24T02:14:02;9.20;99.90
11736;DHT22;5924;51.398;7.088;2022-12-24T02:16:41;9.20;99.90
11736;DHT22;5924;51.398;7.088;2022-12-24T02:22:16;9.10;99.90
11736;DHT22;5924;51.398;7.088;2022-12-24T02:30:34;9.10;99.90
11736;DHT22;5924;51.398;7.088;2022-12-24T02:33:43;9.20;99.90
11736;DHT22;5924;51.398;7.088;2022-12-24T02:36:20;9.30;99.90
11736;DHT22;5924;51.398;7.088;2022-12-24T02:38:54;9.30;99.90
11736;DHT22;5924;51.398;7.088;2022-12-24T02:41:26;9.30;99.90
11736;DHT22;5924;51.398;7.088;2022-12-24T02:44:13;9.40;99.90
11736;DHT22;5924;51.398;7.088;2022-12-24T02:46:40;9.30;99.90
11736;DHT22;5924;51.398;7.088;2022-12-24T02:49:05;9.30;99.90
11736;DHT22;5924;51.398;7.088;2022-12-24T02:51:31;9.30;99.90
11736;DHT22;5924;51.398;7.088;2022-12-24T02:53:57;9.40;99.90
11736;DHT22;5924;51.398;7.088;2022-12-24T03:00:26;9.40;99.90
11736;DHT22;5924;51.398;7.088;2022-12-24T03:13:05;9.20;99.90
11736;DHT22;5924;51.398;7.088;2022-12-24T03:15:34;9.20;99.90
11736;DHT22;5924;51.398;7.088;2022-12-24T03:18:02;9.10;99.90
11736;DHT22;5924;51.398;7.088;2022-12-24T03:23:50;9.00;99.90
11736;DHT22;5924;51.398;7.088;2022-12-24T03:26:17;9.00;99.90
11736;DHT22;5924;51.398;7.088;2022-12-24T03:28:43;9.00;99.90
11736;DHT22;5924;51.398;7.088;2022-12-24T03:31:10;9.00;99.90
11736;DHT22;5924;51.398;7.088;2022-12-24T03:33:36;9.10;99.90
11736;DHT22;5924;51.398;7.088;2022-12-24T03:36:02;9.10;99.90
11736;DHT22;5924;51.398;7.088;2022-12-24T03:38:27;11.20;99.90
11736;DHT22;5924;51.398;7.088;2022-12-24T03:40:53;9.10;99.90
11736;DHT22;5924;51.398;7.088;2022-12-24T03:43:18;9.10;99.90
11736;DHT22;5924;51.398;7.088;2022-12-24T03:45:44;9.00;99.90
11736;DHT22;5924;51.398;7.088;2022-12-24T03:48:10;8.90;99.90
11736;DHT22;5924;51.398;7.088;2022-12-24T03:50:35;9.00;99.90
11736;DHT22;5924;51.398;7.088;2022-12-24T03:53:01;9.00;99.90
11736;DHT22;5924;51.398;7.088;2022-12-24T03:55:27;8.90;99.90
11736;DHT22;5924;51.398;7.088;2022-12-24T03:57:53;9.10;99.90
11736;DHT22;5924;51.398;7.088;2022-12-24T04:00:19;9.10;99.90
11736;DHT22;5924;51.398;7.088;2022-12-24T04:02:44;9.10;99.90
11736;DHT22;5924;51.398;7.088;2022-12-24T04:05:13;9.10;99.90
11736;DHT22;5924;51.398;7.088;2022-12-24T04:07:39;9.10;99.90
11736;DHT22;5924;51.398;7.088;2022-12-24T04:10:05;9.10;99.90
11736;DHT22;5924;51.398;7.088;2022-12-24T04:12:31;9.10;99.90
11736;DHT22;5924;51.398;7.088;2022-12-24T04:14:57;9.10;99.90
11736;DHT22;5924;51.398;7.088;2022-12-24T04:17:22;9.00;99.90
11736;DHT22;5924;51.398;7.088;2022-12-24T04:19:48;9.10;99.90
11736;DHT22;5924;51.398;7.088;2022-12-24T04:22:13;9.10;99.90
11736;DHT22;5924;51.398;7.088;2022-12-24T04:24:39;9.10;99.90
11736;DHT22;5924;51.398;7.088;2022-12-24T04:27:05;9.10;99.90
11736;DHT22;5924;51.398;7.088;2022-12-24T04:29:30;9.20;99.90
11736;DHT22;5924;51.398;7.088;2022-12-24T04:31:56;9.20;99.90
11736;DHT22;5924;51.398;7.088;2022-12-24T04:34:21;9.30;99.90
11736;DHT22;5924;51.398;7.088;2022-12-24T04:36:47;9.30;99.90
11736;DHT22;5924;51.398;7.088;2022-12-24T04:39:12;9.30;99.90
11736;DHT22;5924;51.398;7.088;2022-12-24T04:41:38;9.30;99.90
11736;DHT22;5924;51.398;7.088;2022-12-24T04:44:04;9.40;99.90
11736;DHT22;5924;51.398;7.088;2022-12-24T04:46:29;9.40;99.90
11736;DHT22;5924;51.398;7.088;2022-12-24T04:48:55;9.50;99.90
11736;DHT22;5924;51.398;7.088;2022-12-24T04:51:22;9.50;99.90
11736;DHT22;5924;51.398;7.088;2022-12-24T04:53:48;9.40;99.90
11736;DHT22;5924;51.398;7.088;2022-12-24T04:56:20;9.50;99.90
11736;DHT22;5924;51.398;7.088;2022-12-24T04:58:46;9.50;99.90
11736;DHT22;5924;51.398;7.088;2022-12-24T05:01:17;9.60;99.90
11736;DHT22;5924;51.398;7.088;2022-12-24T05:03:43;9.60;99.90
11736;DHT22;5924;51.398;7.088;2022-12-24T05:06:15;9.60;99.90
11736;DHT22;5924;51.398;7.088;2022-12-24T05:08:41;9.60;99.90
11736;DHT22;5924;51.398;7.088;2022-12-24T05:11:08;9.60;99.90
11736;DHT22;5924;51.398;7.088;2022-12-24T05:13:34;9.60;99.90
11736;DHT22;5924;51.398;7.088;2022-12-24T05:16:00;9.70;99.90
11736;DHT22;5924;51.398;7.088;2022-12-24T05:18:26;9.70;99.90
11736;DHT22;5924;51.398;7.088;2022-12-24T05:20:52;9.70;99.90
11736;DHT22;5924;51.398;7.088;2022-12-24T05:23:20;9.70;99.90
11736;DHT22;5924;51.398;7.088;2022-12-24T05:26:16;9.70;99.90
11736;DHT22;5924;51.398;7.088;2022-12-24T05:28:50;9.60;99.90
11736;DHT22;5924;51.398;7.088;2022-12-24T05:31:16;9.60;99.90
11736;DHT22;5924;51.398;7.088;2022-12-24T05:33:41;9.60;99.90
11736;DHT22;5924;51.398;7.088;2022-12-24T05:36:07;9.60;99.90
11736;DHT22;5924;51.398;7.088;2022-12-24T05:38:33;9.60;99.90
11736;DHT22;5924;51.398;7.088;2022-12-24T05:40:59;9.60;99.90
11736;DHT22;5924;51.398;7.088;2022-12-24T05:43:25;9.60;99.90
11736;DHT22;5924;51.398;7.088;2022-12-24T05:45:50;9.60;99.90
11736;DHT22;5924;51.398;7.088;2022-12-24T05:48:16;9.60;99.90
11736;DHT22;5924;51.398;7.088;2022-12-24T05:50:41;9.50;99.90
11736;DHT22;5924;51.398;7.088;2022-12-24T05:53:07;9.60;99.90
11736;DHT22;5924;51.398;7.088;2022-12-24T05:55:33;9.60;99.90
11736;DHT22;5924;51.398;7.088;2022-12-24T05:57:59;9.60;99.90
11736;DHT22;5924;51.398;7.088;2022-12-24T06:00:25;9.50;99.90
11736;DHT22;5924;51.398;7.088;2022-12-24T06:02:50;9.50;99.90
11736;DHT22;5924;51.398;7.088;2022-12-24T06:05:16;9.50;99.90
11736;DHT22;5924;51.398;7.088;2022-12-24T06:07:42;9.50;99.90
11736;DHT22;5924;51.398;7.088;2022-12-24T06:10:08;9.50;99.90
11736;DHT22;5924;51.398;7.088;2022-12-24T06:12:34;9.50;99.90
11736;DHT22;5924;51.398;7.088;2022-12-24T06:14:59;9.50;99.90
11736;DHT22;5924;51.398;7.088;2022-12-24T06:17:25;9.50;99.90
11736;DHT22;5924;51.398;7.088;2022-12-24T06:19:51;9.50;99.90
11736;DHT22;5924;51.398;7.088;2022-12-24T06:22:16;9.50;99.90
11736;DHT22;5924;51.398;7.088;2022-12-24T06:24:42;9.40;99.90
11736;DHT22;5924;51.398;7.088;2022-12-24T06:27:08;9.40;99.90
11736;DHT22;5924;51.398;7.088;2022-12-24T06:29:33;9.50;99.90
11736;DHT22;5924;51.398;7.088;2022-12-24T06:31:59;9.50;99.90
11736;DHT22;5924;51.398;7.088;2022-12-24T06:34:25;9.50;99.90
11736;DHT22;5924;51.398;7.088;2022-12-24T06:36:50;9.50;99.90
11736;DHT22;5924;51.398;7.088;2022-12-24T06:39:16;9.60;99.90
11736;DHT22;5924;51.398;7.088;2022-12-24T06:41:41;9.60;99.90
11736;DHT22;5924;51.398;7.088;2022-12-24T06:44:07;9.60;99.90
11736;DHT22;5924;51.398;7.088;2022-12-24T06:46:33;9.70;99.90
11736;DHT22;5924;51.398;7.088;2022-12-24T06:48:59;9.70;99.90
11736;DHT22;5924;51.398;7.088;2022-12-24T06:51:24;9.70;99.90
11736;DHT22;5924;51.398;7.088;2022-12-24T06:53:50;9.60;99.90
11736;DHT22;5924;51.398;7.088;2022-12-24T06:56:17;9.60;99.90
11736;DHT22;5924;51.398;7.088;2022-12-24T06:58:43;9.50;99.90
11736;DHT22;5924;51.398;7.088;2022-12-24T07:01:11;9.40;99.90
11736;DHT22;5924;51.398;7.088;2022-12-24T07:03:38;9.40;99.90
11736;DHT22;5924;51.398;7.088;2022-12-24T07:06:04;9.80;99.90
11736;DHT22;5924;51.398;7.088;2022-12-24T07:08:30;9.40;99.90
11736;DHT22;5924;51.398;7.088;2022-12-24T07:11:00;9.40;99.90
11736;DHT22;5924;51.398;7.088;2022-12-24T07:13:26;9.40;99.90
11736;DHT22;5924;51.398;7.088;2022-12-24T07:16:02;9.50;99.90
11736;DHT22;5924;51.398;7.088;2022-12-24T07:18:28;9.50;99.90
11736;DHT22;5924;51.398;7.088;2022-12-24T07:20:54;9.40;99.90
11736;DHT22;5924;51.398;7.088;2022-12-24T07:23:20;9.40;99.90
11736;DHT22;5924;51.398;7.088;2022-12-24T07:25:46;9.50;99.90
11736;DHT22;5924;51.398;7.088;2022-12-24T07:28:11;9.50;99.90
11736;DHT22;5924;51.398;7.088;2022-12-24T07:30:37;9.50;99.90
11736;DHT22;5924;51.398;7.088;2022-12-24T07:33:03;9.50;99.90
11736;DHT22;5924;51.398;7.088;2022-12-24T07:35:28;9.60;99.90
11736;DHT22;5924;51.398;7.088;2022-12-24T07:37:54;9.60;99.90
11736;DHT22;5924;51.398;7.088;2022-12-24T07:40:19;9.60;99.90
11736;DHT22;5924;51.398;7.088;2022-12-24T07:42:45;9.70;99.90
11736;DHT22;5924;51.398;7.088;2022-12-24T07:45:11;9.70;99.90
11736;DHT22;5924;51.398;7.088;2022-12-24T07:47:36;9.70;99.90
11736;DHT22;5924;51.398;7.088;2022-12-24T07:50:04;9.70;99.90
11736;DHT22;5924;51.398;7.088;2022-12-24T07:52:30;9.70;99.90
11736;DHT22;5924;51.398;7.088;2022-12-24T07:54:55;9.70;99.90
11736;DHT22;5924;51.398;7.088;2022-12-24T07:57:21;9.60;99.90
11736;DHT22;5924;51.398;7.088;2022-12-24T07:59:47;9.60;99.90
11736;DHT22;5924;51.398;7.088;2022-12-24T08:02:13;9.50;99.90
11736;DHT22;5924;51.398;7.088;2022-12-24T08:04:38;9.40;99.90
11736;DHT22;5924;51.398;7.088;2022-12-24T08:07:05;9.40;99.90
11736;DHT22;5924;51.398;7.088;2022-12-24T08:09:33;9.40;99.90
11736;DHT22;5924;51.398;7.088;2022-12-24T08:11:59;9.30;99.90
11736;DHT22;5924;51.398;7.088;2022-12-24T08:14:27;9.30;99.90
11736;DHT22;5924;51.398;7.088;2022-12-24T08:16:53;9.30;99.90
11736;DHT22;5924;51.398;7.088;2022-12-24T08:19:18;9.40;99.90
11736;DHT22;5924;51.398;7.088;2022-12-24T08:21:44;9.50;99.90
11736;DHT22;5924;51.398;7.088;2022-12-24T08:24:10;9.50;99.90
11736;DHT22;5924;51.398;7.088;2022-12-24T08:26:35;9.50;99.90
11736;DHT22;5924;51.398;7.088;2022-12-24T08:29:02;9.50;99.90
11736;DHT22;5924;51.398;7.088;2022-12-24T08:31:28;9.50;99.90
11736;DHT22;5924;51.398;7.088;2022-12-24T08:33:54;9.40;99.90
11736;DHT22;5924;51.398;7.088;2022-12-24T08:36:19;9.40;99.90
11736;DHT22;5924;51.398;7.088;2022-12-24T08:38:45;9.30;99.90
11736;DHT22;5924;51.398;7.088;2022-12-24T08:41:11;9.30;99.90
11736;DHT22;5924;51.398;7.088;2022-12-24T08:43:36;9.20;99.90
11736;DHT22;5924;51.398;7.088;2022-12-24T08:46:03;9.20;99.90
11736;DHT22;5924;51.398;7.088;2022-12-24T08:48:30;9.30;99.90
11736;DHT22;5924;51.398;7.088;2022-12-24T08:50:56;9.40;99.90
11736;DHT22;5924;51.398;7.088;2022-12-24T08:53:22;9.50;99.90
11736;DHT22;5924;51.398;7.088;2022-12-24T08:55:47;9.50;99.90
11736;DHT22;5924;51.398;7.088;2022-12-24T08:58:13;9.50;99.90
11736;DHT22;5924;51.398;7.088;2022-12-24T09:00:39;9.50;99.90
11736;DHT22;5924;51.398;7.088;2022-12-24T09:03:04;9.40;99.90
11736;DHT22;5924;51.398;7.088;2022-12-24T09:05:30;9.40;99.90
11736;DHT22;5924;51.398;7.088;2022-12-24T09:07:56;9.40;99.90
11736;DHT22;5924;51.398;7.088;2022-12-24T09:10:22;9.40;99.90
11736;DHT22;5924;51.398;7.088;2022-12-24T09:12:48;9.50;99.90
11736;DHT22;5924;51.398;7.088;2022-12-24T09:15:13;9.40;99.90
11736;DHT22;5924;51.398;7.088;2022-12-24T09:17:39;9.40;99.90
11736;DHT22;5924;51.398;7.088;2022-12-24T09:20:06;9.40;99.90
11736;DHT22;5924;51.398;7.088;2022-12-24T09:22:36;9.50;99.90
11736;DHT22;5924;51.398;7.088;2022-12-24T09:25:03;9.50;99.90
11736;DHT22;5924;51.398;7.088;2022-12-24T09:27:30;9.50;99.90
11736;DHT22;5924;51.398;7.088;2022-12-24T09:29:56;9.50;99.90
11736;DHT22;5924;51.398;7.088;2022-12-24T09:32:22;9.60;99.90
11736;DHT22;5924;51.398;7.088;2022-12-24T09:34:47;9.60;99.90
11736;DHT22;5924;51.398;7.088;2022-12-24T09:37:13;9.60;99.90
11736;DHT22;5924;51.398;7.088;2022-12-24T09:39:38;9.80;99.90
11736;DHT22;5924;51.398;7.088;2022-12-24T09:45:18;10.10;99.90
11736;DHT22;5924;51.398;7.088;2022-12-24T09:47:53;10.20;99.90
11736;DHT22;5924;51.398;7.088;2022-12-24T09:50:45;10.30;99.90
11736;DHT22;5924;51.398;7.088;2022-12-24T09:55:52;10.40;99.90
11736;DHT22;5924;51.398;7.088;2022-12-24T09:58:26;10.50;99.90
11736;DHT22;5924;51.398;7.088;2022-12-24T10:00:55;10.50;99.90
11736;DHT22;5924;51.398;7.088;2022-12-24T10:03:20;10.50;99.90
11736;DHT22;5924;51.398;7.088;2022-12-24T10:06:04;10.40;99.90
11736;DHT22;5924;51.398;7.088;2022-12-24T10:19:45;10.40;99.90
11736;DHT22;5924;51.398;7.088;2022-12-24T10:22:41;10.50;99.90
11736;DHT22;5924;51.398;7.088;2022-12-24T10:25:20;10.50;99.90
11736;DHT22;5924;51.398;7.088;2022-12-24T10:27:47;10.50;99.90
11736;DHT22;5924;51.398;7.088;2022-12-24T10:30:20;10.50;99.90
11736;DHT22;5924;51.398;7.088;2022-12-24T10:32:47;10.50;99.90
11736;DHT22;5924;51.398;7.088;2022-12-24T10:37:40;10.80;99.90
11736;DHT22;5924;51.398;7.088;2022-12-24T10:40:13;10.90;99.90
11736;DHT22;5924;51.398;7.088;2022-12-24T10:42:41;11.00;99.90
11736;DHT22;5924;51.398;7.088;2022-12-24T10:45:15;11.20;99.90
11736;DHT22;5924;51.398;7.088;2022-12-24T10:47:43;11.20;99.90
11736;DHT22;5924;51.398;7.088;2022-12-24T10:50:17;11.20;99.90
11736;DHT22;5924;51.398;7.088;2022-12-24T10:52:44;11.20;99.90
11736;DHT22;5924;51.398;7.088;2022-12-24T10:55:19;11.20;99.90
11736;DHT22;5924;51.398;7.088;2022-12-24T10:58:06;11.30;99.90
11736;DHT22;5924;51.398;7.088;2022-12-24T11:00:37;11.40;99.90
11736;DHT22;5924;51.398;7.088;2022-12-24T11:03:14;11.50;99.90
11736;DHT22;5924;51.398;7.088;2022-12-24T11:05:45;11.40;99.90
11736;DHT22;5924;51.398;7.088;2022-12-24T11:08:15;11.40;99.90
11736;DHT22;5924;51.398;7.088;2022-12-24T11:10:44;12.00;99.90
11736;DHT22;5924;51.398;7.088;2022-12-24T11:13:35;11.60;99.90
11736;DHT22;5924;51.398;7.088;2022-12-24T11:16:03;11.60;1.00
11736;DHT22;5924;51.398;7.088;2022-12-24T11:18:34;11.50;1.00
11736;DHT22;5924;51.398;7.088;2022-12-24T11:21:02;11.60;1.00
11736;DHT22;5924;51.398;7.088;2022-12-24T11:23:29;11.50;1.00
11736;DHT22;5924;51.398;7.088;2022-12-24T11:25:56;11.50;1.00
11736;DHT22;5924;51.398;7.088;2022-12-24T11:31:20;11.30;1.00
11736;DHT22;5924;51.398;7.088;2022-12-24T11:33:48;11.40;1.00
11736;DHT22;5924;51.398;7.088;2022-12-24T11:36:16;11.40;1.00
11736;DHT22;5924;51.398;7.088;2022-12-24T11:38:53;11.30;1.00
11736;DHT22;5924;51.398;7.088;2022-12-24T11:41:20;11.80;1.00
11736;DHT22;5924;51.398;7.088;2022-12-24T11:43:49;11.20;1.00
11736;DHT22;5924;51.398;7.088;2022-12-24T11:46:20;11.10;1.00
11736;DHT22;5924;51.398;7.088;2022-12-24T11:48:47;11.00;1.00
11736;DHT22;5924;51.398;7.088;2022-12-24T11:51:25;11.00;1.00
11736;DHT22;5924;51.398;7.088;2022-12-24T11:54:16;12.10;1.00
11736;DHT22;5924;51.398;7.088;2022-12-24T11:56:47;11.10;1.00
11736;DHT22;5924;51.398;7.088;2022-12-24T12:04:21;11.30;1.00
11736;DHT22;5924;51.398;7.088;2022-12-24T12:06:53;11.30;1.00
11736;DHT22;5924;51.398;7.088;2022-12-24T12:09:28;11.30;1.00
11736;DHT22;5924;51.398;7.088;2022-12-24T12:12:01;12.50;1.00
11736;DHT22;5924;51.398;7.088;2022-12-24T12:14:52;11.10;1.00
11736;DHT22;5924;51.398;7.088;2022-12-24T12:17:32;11.20;1.00
11736;DHT22;5924;51.398;7.088;2022-12-24T12:20:01;11.30;1.00
11736;DHT22;5924;51.398;7.088;2022-12-24T12:25:25;11.40;1.00
11736;DHT22;5924;51.398;7.088;2022-12-24T12:27:55;11.40;1.00
11736;DHT22;5924;51.398;7.088;2022-12-24T12:30:21;11.40;1.00
11736;DHT22;5924;51.398;7.088;2022-12-24T12:33:00;11.70;1.00
11736;DHT22;5924;51.398;7.088;2022-12-24T12:35:41;12.00;1.00
11736;DHT22;5924;51.398;7.088;2022-12-24T12:38:14;12.20;1.00
11736;DHT22;5924;51.398;7.088;2022-12-24T12:51:30;11.40;1.00
11736;DHT22;5924;51.398;7.088;2022-12-24T12:56:51;11.40;1.00
11736;DHT22;5924;51.398;7.088;2022-12-24T13:18:40;11.60;1.00
11736;DHT22;5924;51.398;7.088;2022-12-24T13:21:16;11.70;1.00
11736;DHT22;5924;51.398;7.088;2022-12-24T13:23:42;11.90;1.00
11736;DHT22;5924;51.398;7.088;2022-12-24T13:26:10;12.00;1.00
11736;DHT22;5924;51.398;7.088;2022-12-24T13:28:37;12.00;1.00
11736;DHT22;5924;51.398;7.088;2022-12-24T13:31:24;11.90;1.00
11736;DHT22;5924;51.398;7.088;2022-12-24T13:33:57;11.70;1.00
11736;DHT22;5924;51.398;7.088;2022-12-24T13:36:23;11.50;1.00
11736;DHT22;5924;51.398;7.088;2022-12-24T13:38:52;11.30;1.00
11736;DHT22;5924;51.398;7.088;2022-12-24T13:46:53;10.90;1.00
11736;DHT22;5924;51.398;7.088;2022-12-24T13:49:35;10.70;1.00
11736;DHT22;5924;51.398;7.088;2022-12-24T13:52:26;10.60;1.00
11736;DHT22;5924;51.398;7.088;2022-12-24T13:57:32;10.40;1.00
11736;DHT22;5924;51.398;7.088;2022-12-24T14:02:28;10.40;1.00
11736;DHT22;5924;51.398;7.088;2022-12-24T14:05:00;10.40;1.00
11736;DHT22;5924;51.398;7.088;2022-12-24T14:07:27;10.50;1.00
11736;DHT22;5924;51.398;7.088;2022-12-24T14:09:53;10.50;1.00
11736;DHT22;5924;51.398;7.088;2022-12-24T14:12:50;10.60;1.00
11736;DHT22;5924;51.398;7.088;2022-12-24T14:15:57;10.50;1.00
11736;DHT22;5924;51.398;7.088;2022-12-24T14:18:25;10.50;1.00
11736;DHT22;5924;51.398;7.088;2022-12-24T14:20:53;10.40;1.00
11736;DHT22;5924;51.398;7.088;2022-12-24T14:26:17;10.30;1.00
11736;DHT22;5924;51.398;7.088;2022-12-24T14:28:57;10.20;1.00
11736;DHT22;5924;51.398;7.088;2022-12-24T14:31:23;10.20;1.00
11736;DHT22;5924;51.398;7.088;2022-12-24T14:33:49;10.10;1.00
11736;DHT22;5924;51.398;7.088;2022-12-24T14:36:20;10.00;1.00
11736;DHT22;5924;51.398;7.088;2022-12-24T14:38:46;10.00;1.00
11736;DHT22;5924;51.398;7.088;2022-12-24T14:47:21;9.80;1.00
11736;DHT22;5924;51.398;7.088;2022-12-24T14:55:40;9.70;1.00
11736;DHT22;5924;51.398;7.088;2022-12-24T14:58:20;9.60;1.00
11736;DHT22;5924;51.398;7.088;2022-12-24T15:00:47;9.50;1.00
11736;DHT22;5924;51.398;7.088;2022-12-24T15:03:15;9.40;1.00
11736;DHT22;5924;51.398;7.088;2022-12-24T15:05:41;9.30;1.00
11736;DHT22;5924;51.398;7.088;2022-12-24T15:08:15;9.30;1.00
11736;DHT22;5924;51.398;7.088;2022-12-24T15:10:44;9.20;1.00
11736;DHT22;5924;51.398;7.088;2022-12-24T15:15:42;9.00;1.00
11736;DHT22;5924;51.398;7.088;2022-12-24T15:18:14;8.80;1.00
11736;DHT22;5924;51.398;7.088;2022-12-24T15:20:44;8.70;1.00
11736;DHT22;5924;51.398;7.088;2022-12-24T15:23:34;8.60;1.00
11736;DHT22;5924;51.398;7.088;2022-12-24T15:28:38;8.30;99.90
11736;DHT22;5924;51.398;7.088;2022-12-24T15:31:16;8.20;99.90
11736;DHT22;5924;51.398;7.088;2022-12-24T15:33:47;8.10;99.90
11736;DHT22;5924;51.398;7.088;2022-12-24T15:36:13;8.00;99.90
11736;DHT22;5924;51.398;7.088;2022-12-24T15:38:42;7.90;99.90
11736;DHT22;5924;51.398;7.088;2022-12-24T15:43:42;8.00;99.90
11736;DHT22;5924;51.398;7.088;2022-12-24T15:46:09;8.00;99.90
11736;DHT22;5924;51.398;7.088;2022-12-24T15:48:35;8.00;99.90
11736;DHT22;5924;51.398;7.088;2022-12-24T15:51:03;7.90;99.90
11736;DHT22;5924;51.398;7.088;2022-12-24T15:53:32;7.90;99.90
11736;DHT22;5924;51.398;7.088;2022-12-24T15:58:42;7.80;99.90
11736;DHT22;5924;51.398;7.088;2022-12-24T16:03:36;7.60;99.90
11736;DHT22;5924;51.398;7.088;2022-12-24T16:06:04;7.60;99.90
11736;DHT22;5924;51.398;7.088;2022-12-24T16:08:40;7.40;99.90
11736;DHT22;5924;51.398;7.088;2022-12-24T16:11:19;7.40;99.90
11736;DHT22;5924;51.398;7.088;2022-12-24T16:14:05;7.30;99.90
11736;DHT22;5924;51.398;7.088;2022-12-24T16:16:35;7.30;99.90
11736;DHT22;5924;51.398;7.088;2022-12-24T16:19:02;7.30;99.90
11736;DHT22;5924;51.398;7.088;2022-12-24T16:24:09;7.30;99.90
11736;DHT22;5924;51.398;7.088;2022-12-24T16:26:38;7.30;99.90
11736;DHT22;5924;51.398;7.088;2022-12-24T16:29:04;7.30;99.90
11736;DHT22;5924;51.398;7.088;2022-12-24T16:31:35;7.20;99.90
11736;DHT22;5924;51.398;7.088;2022-12-24T16:34:01;7.30;99.90
11736;DHT22;5924;51.398;7.088;2022-12-24T16:36:29;7.20;99.90
11736;DHT22;5924;51.398;7.088;2022-12-24T16:38:56;7.30;99.90
11736;DHT22;5924;51.398;7.088;2022-12-24T16:41:41;7.20;99.90
11736;DHT22;5924;51.398;7.088;2022-12-24T16:44:25;7.20;99.90
11736;DHT22;5924;51.398;7.088;2022-12-24T16:46:52;7.20;99.90
11736;DHT22;5924;51.398;7.088;2022-12-24T16:49:19;9.70;99.90
11736;DHT22;5924;51.398;7.088;2022-12-24T16:51:46;7.20;99.90
11736;DHT22;5924;51.398;7.088;2022-12-24T16:54:12;7.20;99.90
11736;DHT22;5924;51.398;7.088;2022-12-24T16:56:39;7.10;99.90
11736;DHT22;5924;51.398;7.088;2022-12-24T16:59:05;7.00;99.90
11736;DHT22;5924;51.398;7.088;2022-12-24T17:01:30;7.00;99.90
11736;DHT22;5924;51.398;7.088;2022-12-24T17:03:56;7.00;99.90
11736;DHT22;5924;51.398;7.088;2022-12-24T17:06:22;6.90;99.90
11736;DHT22;5924;51.398;7.088;2022-12-24T17:08:48;6.80;99.90
11736;DHT22;5924;51.398;7.088;2022-12-24T17:11:14;6.70;99.90
11736;DHT22;5924;51.398;7.088;2022-12-24T17:13:39;6.60;99.90
11736;DHT22;5924;51.398;7.088;2022-12-24T17:16:05;6.60;99.90
11736;DHT22;5924;51.398;7.088;2022-12-24T17:18:31;6.50;99.90
11736;DHT22;5924;51.398;7.088;2022-12-24T17:21:01;4.70;99.90
11736;DHT22;5924;51.398;7.088;2022-12-24T17:23:28;6.40;99.90
11736;DHT22;5924;51.398;7.088;2022-12-24T17:25:54;6.40;99.90
11736;DHT22;5924;51.398;7.088;2022-12-24T17:28:20;6.40;99.90
11736;DHT22;5924;51.398;7.088;2022-12-24T17:30:46;6.30;99.90
11736;DHT22;5924;51.398;7.088;2022-12-24T17:33:12;6.40;99.90
11736;DHT22;5924;51.398;7.088;2022-12-24T17:35:41;6.40;99.90
11736;DHT22;5924;51.398;7.088;2022-12-24T17:38:07;6.40;99.90
11736;DHT22;5924;51.398;7.088;2022-12-24T17:40:33;6.40;99.90
11736;DHT22;5924;51.398;7.088;2022-12-24T17:42:58;6.30;99.90
11736;DHT22;5924;51.398;7.088;2022-12-24T17:45:24;6.20;99.90
11736;DHT22;5924;51.398;7.088;2022-12-24T17:47:49;6.20;99.90
11736;DHT22;5924;51.398;7.088;2022-12-24T17:50:15;6.20;99.90
11736;DHT22;5924;51.398;7.088;2022-12-24T17:52:41;6.20;99.90
11736;DHT22;5924;51.398;7.088;2022-12-24T17:55:07;6.20;99.90
11736;DHT22;5924;51.398;7.088;2022-12-24T17:57:33;6.10;99.90
11736;DHT22;5924;51.398;7.088;2022-12-24T17:59:59;6.10;99.90
11736;DHT22;5924;51.398;7.088;2022-12-24T18:02:25;6.10;99.90
11736;DHT22;5924;51.398;7.088;2022-12-24T18:04:50;6.10;99.90
11736;DHT22;5924;51.398;7.088;2022-12-24T18:07:16;6.10;99.90
11736;DHT22;5924;51.398;7.088;2022-12-24T18:09:45;6.10;99.90
11736;DHT22;5924;51.398;7.088;2022-12-24T18:12:12;6.00;99.90
11736;DHT22;5924;51.398;7.088;2022-12-24T18:14:37;6.00;99.90
11736;DHT22;5924;51.398;7.088;2022-12-24T18:17:03;3.50;99.90
11736;DHT22;5924;51.398;7.088;2022-12-24T18:19:29;6.00;99.90
11736;DHT22;5924;51.398;7.088;2022-12-24T18:21:55;6.00;99.90